Aviation Digital Data Service (ADDS)

Output produced by METARs form (2212 UTC 18 January 2017)
found at http://aviationweather.gov/adds/metars/
 
KARA 181735Z 1818/1918 18014KT P6SM VCSH SCT015 BKN025 
     FM190100 15008KT 5SM BR VCSH OVC008 
     FM190800 16008KT 3SM BR VCTS OVC005CB 
     TEMPO 1908/1912 3SM -SHRA OVC005 
     FM191200 16012KT 3SM -SHRA VCTS OVC005CB